createdAt,value
2018-04-30T00:00:35.952Z,0.00
2018-04-30T00:01:35.926Z,0.00
2018-04-30T00:02:35.904Z,0.00
2018-04-30T00:03:35.943Z,0.00
2018-04-30T00:04:35.853Z,0.00
2018-04-30T00:05:35.828Z,0.00
2018-04-30T00:06:35.822Z,0.00
2018-04-30T00:07:35.782Z,0.00
2018-04-30T00:08:35.804Z,0.00
2018-04-30T00:09:35.734Z,0.00
2018-04-30T00:10:35.715Z,0.00
2018-04-30T00:11:35.685Z,0.00
2018-04-30T00:12:35.660Z,0.00
2018-04-30T00:13:35.670Z,0.00
2018-04-30T00:14:35.615Z,0.00
2018-04-30T00:15:35.589Z,0.00
2018-04-30T00:16:35.571Z,0.00
2018-04-30T00:17:35.543Z,0.00
2018-04-30T00:18:35.554Z,0.00
2018-04-30T00:19:35.526Z,0.00
2018-04-30T00:20:35.466Z,0.00
2018-04-30T00:21:35.448Z,0.00
2018-04-30T00:22:35.420Z,0.00
2018-04-30T00:23:35.428Z,0.00
2018-04-30T00:24:35.414Z,0.00
2018-04-30T00:25:35.349Z,0.00
2018-04-30T00:26:35.323Z,0.00
2018-04-30T00:27:35.309Z,0.00
2018-04-30T00:28:35.274Z,0.00
2018-04-30T00:29:35.298Z,0.00
2018-04-30T00:30:35.230Z,0.00
2018-04-30T00:31:35.203Z,0.00
2018-04-30T00:32:35.186Z,0.00
2018-04-30T00:33:35.162Z,0.00
2018-04-30T00:34:35.188Z,0.00
2018-04-30T00:35:35.140Z,0.00
2018-04-30T00:36:35.086Z,0.00
2018-04-30T00:37:35.058Z,0.00
2018-04-30T00:38:35.815Z,0.00
2018-04-30T00:39:35.007Z,0.00
2018-04-30T00:40:35.021Z,0.00
2018-04-30T00:41:34.970Z,0.00
2018-04-30T00:42:34.939Z,0.00
2018-04-30T00:43:34.920Z,0.00
2018-04-30T00:44:34.892Z,0.00
2018-04-30T00:45:34.898Z,0.00
2018-04-30T00:46:34.874Z,0.00
2018-04-30T00:47:34.857Z,0.00
2018-04-30T00:48:34.800Z,0.00
2018-04-30T00:49:34.769Z,0.00
2018-04-30T00:50:34.856Z,0.00
2018-04-30T00:51:34.719Z,0.00
2018-04-30T00:52:34.698Z,0.00
2018-04-30T00:53:34.706Z,0.00
2018-04-30T00:54:34.656Z,0.00
2018-04-30T00:55:34.625Z,0.00
2018-04-30T00:56:34.600Z,0.00
2018-04-30T00:57:34.573Z,0.00
2018-04-30T00:58:34.592Z,0.00
2018-04-30T00:59:34.533Z,0.00
2018-04-30T01:00:34.506Z,0.00
2018-04-30T01:01:34.484Z,0.00
2018-04-30T01:02:34.459Z,0.00
2018-04-30T01:03:34.531Z,0.00
2018-04-30T01:04:34.422Z,0.00
2018-04-30T01:05:34.392Z,0.00
2018-04-30T01:06:34.365Z,0.00
2018-04-30T01:07:34.341Z,0.00
2018-04-30T01:08:34.359Z,0.00
2018-04-30T01:09:34.290Z,0.00
2018-04-30T01:10:34.263Z,0.00
2018-04-30T01:11:34.237Z,0.00
2018-04-30T01:12:34.217Z,0.00
2018-04-30T01:13:34.240Z,0.00
2018-04-30T01:14:34.166Z,0.00
2018-04-30T01:15:34.153Z,0.00
2018-04-30T01:16:34.122Z,0.00
2018-04-30T01:17:34.098Z,0.00
2018-04-30T01:18:34.104Z,0.00
2018-04-30T01:19:34.086Z,0.00
2018-04-30T01:20:34.057Z,0.00
2018-04-30T01:21:33.997Z,0.00
2018-04-30T01:22:33.981Z,0.00
2018-04-30T01:23:33.949Z,0.00
2018-04-30T01:24:33.928Z,0.00
2018-04-30T01:25:34.000Z,0.00
2018-04-30T01:26:33.877Z,0.00
2018-04-30T01:27:33.862Z,0.00
2018-04-30T01:28:33.832Z,0.00
2018-04-30T01:29:33.810Z,0.00
2018-04-30T01:30:33.816Z,0.00
2018-04-30T01:31:33.761Z,0.00
2018-04-30T01:32:33.742Z,0.00
2018-04-30T01:33:33.717Z,0.00
2018-04-30T01:34:33.722Z,0.00
2018-04-30T01:35:33.666Z,0.00
2018-04-30T01:36:33.683Z,0.00
2018-04-30T01:37:33.618Z,0.00
2018-04-30T01:38:33.590Z,0.00
2018-04-30T01:39:33.566Z,0.00
2018-04-30T01:40:33.549Z,0.00
2018-04-30T01:41:33.552Z,0.00
2018-04-30T01:42:33.491Z,0.00
2018-04-30T01:43:33.475Z,0.00
2018-04-30T01:44:33.444Z,0.00
2018-04-30T01:45:33.420Z,0.00
2018-04-30T01:46:33.468Z,0.00
2018-04-30T01:47:33.377Z,0.00
2018-04-30T01:48:33.347Z,0.00
2018-04-30T01:49:33.329Z,0.00
2018-04-30T01:50:33.870Z,0.00
2018-04-30T01:51:33.273Z,0.00
2018-04-30T01:52:33.297Z,0.00
2018-04-30T01:53:33.228Z,0.00
2018-04-30T01:54:33.205Z,0.00
2018-04-30T01:55:33.176Z,0.00
2018-04-30T01:56:33.154Z,0.00
2018-04-30T01:57:33.164Z,0.00
2018-04-30T01:58:33.141Z,0.00
2018-04-30T01:59:33.082Z,0.00
2018-04-30T02:00:33.122Z,0.00
2018-04-30T02:01:33.032Z,0.00
2018-04-30T02:02:33.005Z,0.00
2018-04-30T02:03:33.039Z,0.00
2018-04-30T02:04:32.993Z,0.00
2018-04-30T02:05:32.946Z,0.00
2018-04-30T02:06:32.918Z,0.00
2018-04-30T02:07:32.915Z,0.00
2018-04-30T02:08:32.868Z,0.00
2018-04-30T02:09:32.865Z,0.00
2018-04-30T02:10:32.831Z,0.00
2018-04-30T02:11:32.790Z,0.00
2018-04-30T02:12:32.764Z,0.00
2018-04-30T02:13:32.780Z,0.00
2018-04-30T02:14:32.743Z,0.00
2018-04-30T02:15:32.691Z,0.00
2018-04-30T02:16:32.672Z,0.00
2018-04-30T02:17:32.641Z,0.00
2018-04-30T02:18:32.620Z,0.00
2018-04-30T02:19:32.630Z,0.00
2018-04-30T02:20:32.588Z,0.00
2018-04-30T02:21:32.544Z,0.00
2018-04-30T02:22:32.517Z,0.00
2018-04-30T02:23:32.495Z,0.00
2018-04-30T02:24:32.501Z,0.00
2018-04-30T02:25:32.481Z,0.00
2018-04-30T02:26:33.337Z,0.00
2018-04-30T02:27:32.399Z,0.00
2018-04-30T02:28:32.375Z,0.00
2018-04-30T02:29:32.354Z,0.00
2018-04-30T02:30:32.356Z,0.00
2018-04-30T02:31:32.302Z,0.00
2018-04-30T02:32:32.308Z,0.00
2018-04-30T02:33:32.335Z,0.00
2018-04-30T02:34:32.227Z,0.00
2018-04-30T02:35:32.240Z,0.00
2018-04-30T02:36:32.176Z,0.00
2018-04-30T02:37:32.192Z,0.00
2018-04-30T02:38:32.131Z,0.00
2018-04-30T02:39:32.112Z,0.00
2018-04-30T02:40:32.078Z,0.00
2018-04-30T02:41:32.107Z,0.00
2018-04-30T02:42:32.032Z,0.00
2018-04-30T02:43:32.004Z,0.00
2018-04-30T02:44:31.983Z,0.00
2018-04-30T02:45:31.957Z,0.00
2018-04-30T02:46:31.972Z,0.00
2018-04-30T02:47:31.911Z,0.00
2018-04-30T02:48:31.886Z,0.00
2018-04-30T02:49:31.860Z,0.00
2018-04-30T02:50:31.880Z,0.00
2018-04-30T02:51:31.807Z,0.00
2018-04-30T02:52:31.833Z,0.00
2018-04-30T02:53:31.762Z,0.00
2018-04-30T02:54:32.340Z,0.00
2018-04-30T02:55:31.709Z,0.00
2018-04-30T02:56:31.685Z,0.00
2018-04-30T02:57:31.692Z,0.00
2018-04-30T02:58:31.638Z,0.00
2018-04-30T02:59:31.611Z,0.00
2018-04-30T03:00:31.617Z,0.00
2018-04-30T03:01:31.558Z,0.00
2018-04-30T03:02:31.538Z,0.00
2018-04-30T03:03:31.549Z,0.00
2018-04-30T03:04:31.487Z,0.00
2018-04-30T03:05:31.467Z,0.00
2018-04-30T03:06:31.443Z,0.00
2018-04-30T03:07:31.414Z,0.00
2018-04-30T03:08:31.417Z,0.00
2018-04-30T03:09:31.408Z,0.00
2018-04-30T03:10:31.362Z,0.00
2018-04-30T03:11:31.363Z,0.00
2018-04-30T03:12:31.320Z,0.00
2018-04-30T03:13:31.267Z,0.00
2018-04-30T03:14:31.270Z,0.00
2018-04-30T03:15:31.260Z,0.00
2018-04-30T03:16:31.193Z,0.00
2018-04-30T03:17:31.170Z,0.00
2018-04-30T03:18:31.146Z,0.00
2018-04-30T03:19:31.120Z,0.00
2018-04-30T03:20:31.125Z,0.00
2018-04-30T03:21:31.069Z,0.00
2018-04-30T03:22:31.042Z,0.00
2018-04-30T03:23:31.056Z,0.00
2018-04-30T03:24:30.993Z,0.00
2018-04-30T03:25:30.968Z,0.00
2018-04-30T03:26:30.989Z,0.00
2018-04-30T03:27:30.919Z,5.63
2018-04-30T03:28:30.897Z,5.63
2018-04-30T03:29:30.909Z,5.63
2018-04-30T03:30:30.847Z,5.63
2018-04-30T03:31:30.871Z,5.63
2018-04-30T03:32:30.809Z,5.63
2018-04-30T03:33:31.352Z,5.63
2018-04-30T03:34:30.744Z,5.63
2018-04-30T03:35:30.729Z,11.25
2018-04-30T03:36:30.732Z,11.25
2018-04-30T03:37:30.670Z,11.25
2018-04-30T03:38:30.648Z,11.25
2018-04-30T03:39:30.625Z,16.88
2018-04-30T03:40:30.633Z,16.88
2018-04-30T03:41:30.574Z,16.88
2018-04-30T03:42:30.593Z,16.88
2018-04-30T03:43:30.522Z,22.50
2018-04-30T03:44:30.498Z,22.50
2018-04-30T03:45:30.474Z,22.50
2018-04-30T03:46:30.448Z,28.13
2018-04-30T03:47:30.465Z,28.13
2018-04-30T03:48:30.399Z,28.13
2018-04-30T03:49:30.375Z,33.75
2018-04-30T03:50:30.353Z,33.75
2018-04-30T03:51:30.325Z,39.38
2018-04-30T03:52:30.336Z,39.38
2018-04-30T03:53:30.275Z,39.38
2018-04-30T03:54:30.295Z,45.00
2018-04-30T03:55:30.226Z,45.00
2018-04-30T03:56:30.199Z,50.63
2018-04-30T03:57:30.179Z,50.63
2018-04-30T03:58:30.190Z,56.25
2018-04-30T03:59:30.160Z,56.25
2018-04-30T04:00:30.103Z,56.25
2018-04-30T04:01:30.078Z,61.88
2018-04-30T04:02:30.056Z,61.88
2018-04-30T04:03:30.062Z,67.50
2018-04-30T04:04:30.040Z,67.50
2018-04-30T04:05:29.983Z,73.13
2018-04-30T04:06:29.951Z,73.13
2018-04-30T04:07:29.927Z,78.75
2018-04-30T04:08:29.903Z,78.75
2018-04-30T04:09:29.919Z,84.38
2018-04-30T04:10:29.853Z,90.00
2018-04-30T04:11:29.827Z,90.00
2018-04-30T04:12:29.801Z,90.00
2018-04-30T04:13:29.782Z,95.63
2018-04-30T04:14:29.785Z,101.25
2018-04-30T04:15:29.730Z,101.25
2018-04-30T04:16:29.740Z,106.88
2018-04-30T04:17:29.691Z,106.88
2018-04-30T04:18:29.653Z,112.50
2018-04-30T04:19:29.629Z,118.13
2018-04-30T04:20:29.638Z,118.13
2018-04-30T04:21:29.615Z,123.75
2018-04-30T04:22:29.590Z,123.75
2018-04-30T04:23:29.528Z,129.38
2018-04-30T04:24:29.509Z,135.00
2018-04-30T04:25:29.517Z,140.63
2018-04-30T04:26:29.463Z,140.63
2018-04-30T04:27:29.487Z,146.25
2018-04-30T04:28:29.413Z,146.25
2018-04-30T04:29:29.386Z,151.88
2018-04-30T04:30:29.356Z,157.50
2018-04-30T04:31:29.333Z,157.50
2018-04-30T04:32:29.343Z,163.13
2018-04-30T04:33:29.294Z,168.75
2018-04-30T04:34:29.260Z,174.38
2018-04-30T04:35:29.239Z,174.38
2018-04-30T04:36:29.259Z,180.00
2018-04-30T04:37:29.213Z,174.38
2018-04-30T04:38:29.159Z,180.00
2018-04-30T04:39:29.135Z,180.00
2018-04-30T04:40:29.113Z,180.00
2018-04-30T04:41:29.117Z,168.75
2018-04-30T04:42:29.113Z,168.75
2018-04-30T04:43:29.041Z,163.13
2018-04-30T04:44:29.016Z,157.50
2018-04-30T04:45:28.991Z,157.50
2018-04-30T04:46:28.965Z,168.75
2018-04-30T04:47:29.071Z,180.00
2018-04-30T04:48:28.917Z,191.25
2018-04-30T04:49:28.893Z,230.63
2018-04-30T04:50:28.878Z,247.50
2018-04-30T04:51:28.843Z,225.00
2018-04-30T04:52:28.855Z,230.63
2018-04-30T04:53:28.801Z,225.00
2018-04-30T04:54:28.804Z,219.38
2018-04-30T04:55:28.771Z,225.00
2018-04-30T04:56:28.725Z,219.38
2018-04-30T04:57:28.701Z,219.38
2018-04-30T04:58:28.673Z,225.00
2018-04-30T04:59:28.691Z,219.38
2018-04-30T05:00:28.628Z,213.75
2018-04-30T05:01:28.607Z,219.38
2018-04-30T05:02:28.616Z,219.38
2018-04-30T05:03:28.572Z,225.00
2018-04-30T05:04:28.534Z,230.63
2018-04-30T05:05:28.510Z,241.88
2018-04-30T05:06:28.533Z,253.13
2018-04-30T05:07:28.460Z,264.38
2018-04-30T05:08:28.433Z,275.63
2018-04-30T05:09:28.412Z,286.88
2018-04-30T05:10:28.390Z,298.13
2018-04-30T05:11:28.397Z,292.50
2018-04-30T05:12:28.341Z,281.25
2018-04-30T05:13:28.318Z,275.63
2018-04-30T05:14:28.346Z,292.50
2018-04-30T05:15:28.268Z,292.50
2018-04-30T05:16:28.244Z,286.88
2018-04-30T05:17:28.221Z,275.63
2018-04-30T05:18:28.200Z,275.63
2018-04-30T05:19:28.206Z,281.25
2018-04-30T05:20:28.148Z,303.75
2018-04-30T05:21:28.166Z,315.00
2018-04-30T05:22:28.101Z,315.00
2018-04-30T05:23:28.086Z,298.13
2018-04-30T05:24:28.053Z,286.88
2018-04-30T05:25:28.036Z,253.13
2018-04-30T05:26:28.048Z,253.13
2018-04-30T05:27:27.985Z,275.63
2018-04-30T05:28:27.961Z,309.38
2018-04-30T05:29:27.938Z,337.50
2018-04-30T05:30:27.949Z,337.50
2018-04-30T05:31:27.892Z,320.63
2018-04-30T05:32:27.874Z,303.75
2018-04-30T05:33:27.883Z,320.63
2018-04-30T05:34:27.853Z,326.25
2018-04-30T05:35:27.804Z,326.25
2018-04-30T05:36:27.774Z,331.88
2018-04-30T05:37:27.754Z,331.88
2018-04-30T05:38:27.726Z,337.50
2018-04-30T05:39:27.740Z,343.13
2018-04-30T05:40:27.683Z,337.50
2018-04-30T05:41:27.664Z,315.00
2018-04-30T05:42:27.635Z,298.13
2018-04-30T05:43:27.638Z,281.25
2018-04-30T05:44:27.626Z,286.88
2018-04-30T05:45:27.603Z,309.38
2018-04-30T05:46:27.544Z,331.88
2018-04-30T05:47:27.524Z,326.25
2018-04-30T05:48:27.503Z,337.50
2018-04-30T05:49:27.510Z,354.38
2018-04-30T05:50:27.454Z,376.88
2018-04-30T05:51:27.428Z,382.50
2018-04-30T05:52:27.409Z,393.75
2018-04-30T05:53:27.385Z,393.75
2018-04-30T05:54:27.427Z,393.75
2018-04-30T05:55:27.343Z,393.75
2018-04-30T05:56:27.319Z,388.13
2018-04-30T05:57:27.295Z,388.13
2018-04-30T05:58:27.272Z,388.13
2018-04-30T05:59:27.295Z,388.13
2018-04-30T06:00:27.269Z,393.75
2018-04-30T06:01:27.206Z,393.75
2018-04-30T06:02:27.190Z,399.38
2018-04-30T06:03:27.164Z,393.75
2018-04-30T06:04:27.185Z,393.75
2018-04-30T06:05:27.150Z,382.50
2018-04-30T06:06:27.090Z,376.88
2018-04-30T06:07:27.067Z,371.25
2018-04-30T06:08:27.049Z,371.25
2018-04-30T06:09:27.029Z,365.63
2018-04-30T06:10:27.039Z,365.63
2018-04-30T06:11:26.981Z,360.00
2018-04-30T06:12:26.956Z,360.00
2018-04-30T06:13:26.938Z,365.63
2018-04-30T06:14:26.915Z,360.00
2018-04-30T06:15:26.922Z,354.38
2018-04-30T06:16:26.919Z,360.00
2018-04-30T06:17:26.857Z,354.38
2018-04-30T06:18:26.823Z,354.38
2018-04-30T06:19:26.813Z,354.38
2018-04-30T06:20:26.780Z,354.38
2018-04-30T06:21:26.794Z,354.38
2018-04-30T06:22:26.735Z,360.00
2018-04-30T06:23:26.714Z,360.00
2018-04-30T06:24:26.698Z,354.38
2018-04-30T06:25:26.677Z,354.38
2018-04-30T06:26:26.682Z,354.38
2018-04-30T06:27:26.624Z,354.38
2018-04-30T06:28:26.607Z,354.38
2018-04-30T06:29:26.580Z,348.75
2018-04-30T06:30:26.609Z,348.75
2018-04-30T06:31:26.536Z,348.75
2018-04-30T06:32:26.519Z,348.75
2018-04-30T06:33:26.490Z,348.75
2018-04-30T06:34:26.470Z,348.75
2018-04-30T06:35:26.495Z,354.38
2018-04-30T06:36:26.426Z,354.38
2018-04-30T06:37:26.408Z,354.38
2018-04-30T06:38:26.383Z,354.38
2018-04-30T06:39:26.364Z,360.00
2018-04-30T06:40:26.378Z,360.00
2018-04-30T06:41:26.326Z,354.38
2018-04-30T06:42:26.330Z,354.38
2018-04-30T06:43:26.326Z,354.38
2018-04-30T06:44:26.294Z,354.38
2018-04-30T06:45:26.270Z,354.38
2018-04-30T06:46:26.231Z,354.38
2018-04-30T06:47:26.254Z,354.38
2018-04-30T06:48:26.161Z,354.38
2018-04-30T06:49:26.176Z,354.38
2018-04-30T06:50:26.118Z,354.38
2018-04-30T06:51:26.125Z,348.75
2018-04-30T06:52:26.072Z,348.75
2018-04-30T06:53:26.058Z,354.38
2018-04-30T06:54:26.049Z,348.75
2018-04-30T06:55:26.008Z,348.75
2018-04-30T06:56:26.043Z,348.75
2018-04-30T06:57:25.962Z,348.75
2018-04-30T06:58:25.953Z,348.75
2018-04-30T06:59:25.920Z,348.75
2018-04-30T07:00:25.906Z,343.13
2018-04-30T07:01:25.915Z,348.75
2018-04-30T07:02:25.857Z,348.75
2018-04-30T07:03:25.832Z,348.75
2018-04-30T07:04:25.841Z,348.75
2018-04-30T07:05:25.789Z,348.75
2018-04-30T07:06:25.805Z,348.75
2018-04-30T07:07:25.777Z,360.00
2018-04-30T07:08:25.734Z,354.38
2018-04-30T07:09:25.831Z,348.75
2018-04-30T07:10:25.679Z,348.75
2018-04-30T07:11:25.660Z,348.75
2018-04-30T07:12:25.679Z,348.75
2018-04-30T07:13:25.618Z,348.75
2018-04-30T07:14:25.629Z,348.75
2018-04-30T07:15:25.611Z,343.13
2018-04-30T07:16:25.548Z,343.13
2018-04-30T07:17:25.532Z,343.13
2018-04-30T07:18:25.510Z,343.13
2018-04-30T07:19:25.568Z,343.13
2018-04-30T07:20:25.461Z,343.13
2018-04-30T07:21:25.447Z,343.13
2018-04-30T07:22:25.419Z,337.50
2018-04-30T07:23:25.400Z,343.13
2018-04-30T07:24:25.416Z,337.50
2018-04-30T07:25:25.360Z,343.13
2018-04-30T07:26:25.345Z,343.13
2018-04-30T07:27:25.314Z,343.13
2018-04-30T07:28:25.298Z,348.75
2018-04-30T07:29:25.301Z,348.75
2018-04-30T07:30:25.288Z,354.38
2018-04-30T07:31:25.268Z,348.75
2018-04-30T07:32:25.211Z,354.38
2018-04-30T07:33:25.187Z,348.75
2018-04-30T07:34:25.164Z,348.75
2018-04-30T07:35:25.177Z,348.75
2018-04-30T07:36:25.163Z,348.75
2018-04-30T07:37:25.103Z,348.75
2018-04-30T07:38:25.080Z,348.75
2018-04-30T07:39:25.057Z,354.38
2018-04-30T07:40:25.039Z,348.75
2018-04-30T07:41:25.053Z,348.75
2018-04-30T07:42:24.995Z,343.13
2018-04-30T07:43:24.977Z,348.75
2018-04-30T07:44:24.962Z,348.75
2018-04-30T07:45:24.968Z,348.75
2018-04-30T07:46:24.917Z,348.75
2018-04-30T07:47:24.888Z,348.75
2018-04-30T07:48:24.867Z,348.75
2018-04-30T07:49:24.853Z,354.38
2018-04-30T07:50:24.864Z,354.38
2018-04-30T07:51:24.805Z,348.75
2018-04-30T07:52:24.824Z,343.13
2018-04-30T07:53:24.776Z,348.75
2018-04-30T07:54:24.743Z,348.75
2018-04-30T07:55:24.728Z,348.75
2018-04-30T07:56:24.701Z,348.75
2018-04-30T07:57:24.724Z,348.75
2018-04-30T07:58:24.658Z,348.75
2018-04-30T07:59:24.642Z,348.75
2018-04-30T08:00:24.619Z,348.75
2018-04-30T08:01:24.635Z,348.75
2018-04-30T08:02:25.311Z,348.75
2018-04-30T08:03:24.560Z,348.75
2018-04-30T08:04:24.537Z,348.75
2018-04-30T08:05:24.517Z,348.75
2018-04-30T08:06:24.530Z,348.75
2018-04-30T08:07:24.474Z,348.75
2018-04-30T08:08:24.460Z,354.38
2018-04-30T08:09:24.436Z,354.38
2018-04-30T08:10:24.419Z,348.75
2018-04-30T08:11:24.445Z,348.75
2018-04-30T08:12:24.378Z,348.75
2018-04-30T08:13:24.353Z,348.75
2018-04-30T08:14:24.335Z,348.75
2018-04-30T08:15:24.315Z,348.75
2018-04-30T08:16:24.341Z,348.75
2018-04-30T08:17:24.275Z,348.75
2018-04-30T08:18:24.251Z,348.75
2018-04-30T08:19:24.232Z,348.75
2018-04-30T08:20:24.215Z,348.75
2018-04-30T08:21:24.247Z,348.75
2018-04-30T08:22:24.180Z,348.75
2018-04-30T08:23:24.155Z,348.75
2018-04-30T08:24:24.136Z,348.75
2018-04-30T08:25:24.116Z,348.75
2018-04-30T08:26:24.132Z,348.75
2018-04-30T08:27:24.109Z,348.75
2018-04-30T08:28:24.050Z,343.13
2018-04-30T08:29:24.039Z,343.13
2018-04-30T08:30:24.011Z,343.13
2018-04-30T08:31:23.995Z,343.13
2018-04-30T08:32:24.015Z,343.13
2018-04-30T08:33:23.950Z,343.13
2018-04-30T08:34:23.933Z,337.50
2018-04-30T08:35:23.915Z,337.50
2018-04-30T08:36:23.897Z,337.50
2018-04-30T08:37:23.910Z,337.50
2018-04-30T08:38:23.853Z,337.50
2018-04-30T08:39:23.835Z,337.50
2018-04-30T08:40:23.813Z,337.50
2018-04-30T08:41:23.795Z,337.50
2018-04-30T08:42:23.805Z,343.13
2018-04-30T08:43:23.750Z,343.13
2018-04-30T08:44:23.738Z,326.25
2018-04-30T08:45:23.755Z,309.38
2018-04-30T08:46:23.702Z,292.50
2018-04-30T08:47:23.681Z,292.50
2018-04-30T08:48:23.657Z,309.38
2018-04-30T08:49:23.749Z,343.13
2018-04-30T08:50:23.615Z,360.00
2018-04-30T08:51:23.599Z,416.25
2018-04-30T08:52:23.577Z,472.50
2018-04-30T08:53:23.560Z,534.38
2018-04-30T08:54:23.590Z,601.88
2018-04-30T08:55:23.517Z,669.38
2018-04-30T08:56:23.503Z,742.50
2018-04-30T08:57:23.482Z,793.13
2018-04-30T08:58:23.463Z,849.38
2018-04-30T08:59:23.479Z,866.25
2018-04-30T09:00:23.533Z,855.00
2018-04-30T09:01:23.409Z,838.13
2018-04-30T09:02:23.390Z,832.50
2018-04-30T09:03:23.369Z,838.13
2018-04-30T09:04:23.355Z,843.75
2018-04-30T09:05:23.442Z,832.50
2018-04-30T09:06:23.322Z,826.88
2018-04-30T09:07:23.294Z,843.75
2018-04-30T09:08:23.287Z,855.00
2018-04-30T09:09:23.262Z,866.25
2018-04-30T09:10:23.344Z,855.00
2018-04-30T09:11:23.257Z,838.13
2018-04-30T09:12:23.209Z,843.75
2018-04-30T09:13:23.186Z,838.13
2018-04-30T09:14:23.194Z,821.25
2018-04-30T09:15:23.201Z,798.75
2018-04-30T09:16:23.138Z,748.13
2018-04-30T09:17:23.122Z,725.63
2018-04-30T09:18:23.101Z,708.75
2018-04-30T09:19:23.088Z,697.50
2018-04-30T09:20:23.116Z,708.75
2018-04-30T09:21:23.053Z,725.63
2018-04-30T09:22:23.083Z,742.50
2018-04-30T09:23:23.016Z,731.25
2018-04-30T09:24:22.998Z,708.75
2018-04-30T09:25:22.984Z,708.75
2018-04-30T09:26:22.962Z,697.50
2018-04-30T09:27:22.981Z,663.75
2018-04-30T09:28:22.929Z,641.25
2018-04-30T09:29:22.912Z,624.38
2018-04-30T09:30:22.894Z,596.25
2018-04-30T09:31:22.886Z,568.13
2018-04-30T09:32:22.899Z,534.38
2018-04-30T09:33:22.884Z,523.13
2018-04-30T09:34:22.832Z,528.75
2018-04-30T09:35:22.810Z,596.25
2018-04-30T09:36:22.794Z,551.25
2018-04-30T09:37:22.823Z,596.25
2018-04-30T09:38:22.768Z,630.00
2018-04-30T09:39:22.743Z,658.13
2018-04-30T09:40:22.728Z,663.75
2018-04-30T09:41:22.708Z,720.00
2018-04-30T09:42:22.727Z,748.13
2018-04-30T09:43:22.671Z,720.00
2018-04-30T09:44:22.655Z,658.13
2018-04-30T09:45:22.637Z,663.75
2018-04-30T09:46:22.621Z,753.75
2018-04-30T09:47:22.639Z,770.63
2018-04-30T09:48:22.588Z,703.13
2018-04-30T09:49:22.607Z,596.25
2018-04-30T09:50:22.553Z,551.25
2018-04-30T09:51:22.534Z,652.50
2018-04-30T09:52:22.517Z,793.13
2018-04-30T09:53:25.451Z,832.50
2018-04-30T09:54:22.483Z,855.00
2018-04-30T09:55:22.468Z,900.00
2018-04-30T09:56:22.449Z,860.63
2018-04-30T09:57:22.434Z,787.50
2018-04-30T09:58:22.500Z,675.00
2018-04-30T09:59:22.399Z,556.88
2018-04-30T10:00:22.452Z,534.38
2018-04-30T10:01:22.365Z,528.75
2018-04-30T10:02:22.393Z,455.63
2018-04-30T10:03:22.379Z,371.25
2018-04-30T10:04:22.321Z,309.38
2018-04-30T10:05:22.292Z,382.50
2018-04-30T10:06:22.288Z,472.50
2018-04-30T10:07:22.306Z,551.25
2018-04-30T10:08:22.492Z,590.63
2018-04-30T10:09:22.227Z,551.25
2018-04-30T10:10:22.238Z,489.38
2018-04-30T10:11:22.188Z,618.75
2018-04-30T10:12:22.170Z,646.88
2018-04-30T10:13:22.153Z,585.00
2018-04-30T10:14:22.169Z,618.75
2018-04-30T10:15:22.141Z,663.75
2018-04-30T10:16:22.149Z,736.88
2018-04-30T10:17:22.082Z,759.38
2018-04-30T10:18:22.065Z,742.50
2018-04-30T10:19:22.043Z,742.50
2018-04-30T10:20:22.027Z,765.00
2018-04-30T10:21:22.049Z,708.75
2018-04-30T10:22:21.992Z,697.50
2018-04-30T10:23:21.985Z,804.38
2018-04-30T10:24:21.955Z,883.13
2018-04-30T10:25:21.975Z,821.25
2018-04-30T10:26:21.999Z,804.38
2018-04-30T10:27:21.901Z,984.38
2018-04-30T10:28:21.881Z,1057.50
2018-04-30T10:29:21.866Z,1080.00
2018-04-30T10:30:22.449Z,1147.50
2018-04-30T10:31:21.866Z,1136.25
2018-04-30T10:32:21.814Z,1046.25
2018-04-30T10:33:21.792Z,1023.75
2018-04-30T10:34:21.782Z,1018.13
2018-04-30T10:35:21.757Z,973.13
2018-04-30T10:36:21.772Z,883.13
2018-04-30T10:37:21.760Z,855.00
2018-04-30T10:38:21.705Z,832.50
2018-04-30T10:39:21.688Z,849.38
2018-04-30T10:40:21.672Z,860.63
2018-04-30T10:41:21.669Z,849.38
2018-04-30T10:42:21.698Z,821.25
2018-04-30T10:43:21.617Z,871.88
2018-04-30T10:44:21.604Z,905.63
2018-04-30T10:45:21.581Z,883.13
2018-04-30T10:46:21.564Z,815.63
2018-04-30T10:47:21.583Z,736.88
2018-04-30T10:48:21.581Z,708.75
2018-04-30T10:49:21.512Z,703.13
2018-04-30T10:50:21.495Z,697.50
2018-04-30T10:51:21.473Z,714.38
2018-04-30T10:52:21.458Z,720.00
2018-04-30T10:53:21.486Z,680.63
2018-04-30T10:54:21.425Z,590.63
2018-04-30T10:55:21.456Z,483.75
2018-04-30T10:56:21.390Z,371.25
2018-04-30T10:57:21.384Z,292.50
2018-04-30T10:58:21.350Z,253.13
2018-04-30T10:59:21.350Z,258.75
2018-04-30T11:00:21.348Z,264.38
2018-04-30T11:01:21.295Z,258.75
2018-04-30T11:02:21.328Z,253.13
2018-04-30T11:03:21.259Z,230.63
2018-04-30T11:04:21.245Z,213.75
2018-04-30T11:05:21.255Z,225.00
2018-04-30T11:06:21.202Z,241.88
2018-04-30T11:07:21.184Z,303.75
2018-04-30T11:08:21.206Z,405.00
2018-04-30T11:09:21.145Z,500.63
2018-04-30T11:10:21.126Z,461.25
2018-04-30T11:11:21.150Z,450.00
2018-04-30T11:12:21.147Z,461.25
2018-04-30T11:13:21.106Z,455.63
2018-04-30T11:14:21.051Z,461.25
2018-04-30T11:15:21.064Z,472.50
2018-04-30T11:16:21.007Z,500.63
2018-04-30T11:17:20.991Z,545.63
2018-04-30T11:18:20.983Z,540.00
2018-04-30T11:19:20.999Z,483.75
2018-04-30T11:20:20.932Z,388.13
2018-04-30T11:21:20.916Z,376.88
2018-04-30T11:22:20.893Z,500.63
2018-04-30T11:23:20.870Z,579.38
2018-04-30T11:24:20.919Z,540.00
2018-04-30T11:25:20.830Z,450.00
2018-04-30T11:26:20.814Z,376.88
2018-04-30T11:27:20.792Z,399.38
2018-04-30T11:28:20.776Z,399.38
2018-04-30T11:29:20.800Z,455.63
2018-04-30T11:30:20.734Z,596.25
2018-04-30T11:31:20.713Z,731.25
2018-04-30T11:32:20.697Z,810.00
2018-04-30T11:33:20.672Z,838.13
2018-04-30T11:34:20.692Z,883.13
2018-04-30T11:35:20.629Z,933.75
2018-04-30T11:36:20.617Z,984.38
2018-04-30T11:37:20.599Z,945.00
2018-04-30T11:38:20.575Z,860.63
2018-04-30T11:39:20.594Z,815.63
2018-04-30T11:40:20.638Z,787.50
2018-04-30T11:41:20.520Z,765.00
2018-04-30T11:42:20.535Z,731.25
2018-04-30T11:43:20.479Z,691.88
2018-04-30T11:44:20.462Z,624.38
2018-04-30T11:45:20.451Z,590.63
2018-04-30T11:46:20.458Z,568.13
2018-04-30T11:47:20.409Z,556.88
2018-04-30T11:48:20.389Z,556.88
2018-04-30T11:49:20.367Z,528.75
2018-04-30T11:50:20.350Z,495.00
2018-04-30T11:51:20.520Z,450.00
2018-04-30T11:52:20.315Z,433.13
2018-04-30T11:53:20.291Z,421.88
2018-04-30T11:54:20.339Z,416.25
2018-04-30T11:55:20.251Z,433.13
2018-04-30T11:56:20.267Z,489.38
2018-04-30T11:57:20.254Z,500.63
2018-04-30T11:58:20.205Z,472.50
2018-04-30T11:59:20.177Z,444.38
2018-04-30T12:00:20.177Z,393.75
2018-04-30T12:01:20.153Z,331.88
2018-04-30T12:02:20.174Z,281.25
2018-04-30T12:03:20.127Z,247.50
2018-04-30T12:04:20.076Z,236.25
2018-04-30T12:05:20.083Z,253.13
2018-04-30T12:06:20.039Z,286.88
2018-04-30T12:07:20.068Z,354.38
2018-04-30T12:08:20.051Z,444.38
2018-04-30T12:09:19.982Z,506.25
2018-04-30T12:10:19.961Z,545.63
2018-04-30T12:11:19.974Z,635.63
2018-04-30T12:12:19.939Z,759.38
2018-04-30T12:13:19.940Z,832.50
2018-04-30T12:14:19.880Z,855.00
2018-04-30T12:15:19.861Z,849.38
2018-04-30T12:16:19.841Z,793.13
2018-04-30T12:17:19.822Z,708.75
2018-04-30T12:18:19.839Z,579.38
2018-04-30T12:19:19.779Z,511.88
2018-04-30T12:20:19.797Z,472.50
2018-04-30T12:21:19.741Z,450.00
2018-04-30T12:22:19.720Z,416.25
2018-04-30T12:23:19.736Z,388.13
2018-04-30T12:24:19.682Z,405.00
2018-04-30T12:25:19.665Z,427.50
2018-04-30T12:26:19.643Z,416.25
2018-04-30T12:27:19.626Z,405.00
2018-04-30T12:28:19.652Z,393.75
2018-04-30T12:29:19.586Z,371.25
2018-04-30T12:30:19.563Z,388.13
2018-04-30T12:31:19.542Z,388.13
2018-04-30T12:32:19.526Z,348.75
2018-04-30T12:33:19.537Z,315.00
2018-04-30T12:34:19.521Z,292.50
2018-04-30T12:35:19.461Z,298.13
2018-04-30T12:36:19.442Z,286.88
2018-04-30T12:37:19.427Z,281.25
2018-04-30T12:38:19.404Z,270.00
2018-04-30T12:39:19.425Z,270.00
2018-04-30T12:40:19.358Z,270.00
2018-04-30T12:41:19.344Z,264.38
2018-04-30T12:42:19.318Z,258.75